createdAt,value
2019-04-16T00:00:30.296Z,4.20
2019-04-16T00:01:30.233Z,3.60
2019-04-16T00:02:30.168Z,4.50
2019-04-16T00:03:30.101Z,4.40
2019-04-16T00:04:30.037Z,4.30
2019-04-16T00:05:29.973Z,4.40
2019-04-16T00:06:29.910Z,3.30
2019-04-16T00:07:29.840Z,4.50
2019-04-16T00:08:29.777Z,4.10
2019-04-16T00:09:29.704Z,3.60
2019-04-16T00:10:29.642Z,4.50
2019-04-16T00:11:29.579Z,4.40
2019-04-16T00:12:29.511Z,4.30
2019-04-16T00:13:29.447Z,4.30
2019-04-16T00:14:29.386Z,4.00
2019-04-16T00:15:29.316Z,4.20
2019-04-16T00:16:29.252Z,4.90
2019-04-16T00:17:29.185Z,4.40
2019-04-16T00:18:29.120Z,4.40
2019-04-16T00:19:29.054Z,4.00
2019-04-16T00:20:28.987Z,4.20
2019-04-16T00:21:28.928Z,4.00
2019-04-16T00:22:28.857Z,4.50
2019-04-16T00:23:28.793Z,5.00
2019-04-16T00:24:28.727Z,3.80
2019-04-16T00:25:28.666Z,4.00
2019-04-16T00:26:28.595Z,4.60
2019-04-16T00:27:29.351Z,4.30
2019-04-16T00:28:30.829Z,4.00
2019-04-16T00:29:32.713Z,4.70
2019-04-16T00:30:28.337Z,3.60
2019-04-16T00:31:28.316Z,4.60
2019-04-16T00:32:28.213Z,3.90
2019-04-16T00:33:28.136Z,3.80
2019-04-16T00:34:28.073Z,4.10
2019-04-16T00:35:28.007Z,4.60
2019-04-16T00:36:27.939Z,4.50
2019-04-16T00:37:27.879Z,5.20
2019-04-16T00:38:40.089Z,4.20
2019-04-16T00:39:27.747Z,4.10
2019-04-16T00:40:27.678Z,3.90
2019-04-16T00:41:27.614Z,4.40
2019-04-16T00:42:27.553Z,4.20
2019-04-16T00:43:27.480Z,4.80
2019-04-16T00:44:27.422Z,3.80
2019-04-16T00:45:27.351Z,3.60
2019-04-16T00:46:27.286Z,3.90
2019-04-16T00:47:27.231Z,3.60
2019-04-16T00:48:27.154Z,4.30
2019-04-16T00:49:27.199Z,5.00
2019-04-16T00:50:27.021Z,3.60
2019-04-16T00:51:26.956Z,4.00
2019-04-16T00:52:26.892Z,4.20
2019-04-16T00:53:26.823Z,3.70
2019-04-16T00:54:26.766Z,4.60
2019-04-16T00:55:26.695Z,5.00
2019-04-16T00:56:26.644Z,4.10
2019-04-16T00:57:26.561Z,4.60
2019-04-16T00:58:26.495Z,4.10
2019-04-16T00:59:26.434Z,4.00
2019-04-16T01:00:27.673Z,4.20
2019-04-16T01:01:26.299Z,5.00
2019-04-16T01:02:26.234Z,3.60
2019-04-16T01:03:26.165Z,3.70
2019-04-16T01:04:26.098Z,4.20
2019-04-16T01:05:26.035Z,3.70
2019-04-16T01:06:25.971Z,4.10
2019-04-16T01:07:25.906Z,4.10
2019-04-16T01:08:25.838Z,4.60
2019-04-16T01:09:25.849Z,3.70
2019-04-16T01:10:25.704Z,5.00
2019-04-16T01:11:25.639Z,4.10
2019-04-16T01:12:25.573Z,3.80
2019-04-16T01:13:25.510Z,4.80
2019-04-16T01:14:26.746Z,3.60
2019-04-16T01:15:25.378Z,3.70
2019-04-16T01:16:25.309Z,4.10
2019-04-16T01:17:25.247Z,4.20
2019-04-16T01:18:25.179Z,4.40
2019-04-16T01:19:25.114Z,4.20
2019-04-16T01:20:25.048Z,4.40
2019-04-16T01:21:24.982Z,3.80
2019-04-16T01:22:24.914Z,4.40
2019-04-16T01:23:24.848Z,3.90
2019-04-16T01:24:24.778Z,3.80
2019-04-16T01:25:24.713Z,4.10
2019-04-16T01:26:26.791Z,5.10
2019-04-16T01:27:28.535Z,3.50
2019-04-16T01:28:24.522Z,4.40
2019-04-16T01:29:24.456Z,4.10
2019-04-16T01:30:24.389Z,3.80
2019-04-16T01:31:24.335Z,3.70
2019-04-16T01:32:24.251Z,3.80
2019-04-16T01:33:24.188Z,4.10
2019-04-16T01:34:24.132Z,4.20
2019-04-16T01:35:24.056Z,3.60
2019-04-16T01:36:23.993Z,5.00
2019-04-16T01:37:25.780Z,3.70
2019-04-16T01:38:27.662Z,4.20
2019-04-16T01:39:23.792Z,3.70
2019-04-16T01:40:23.728Z,3.80
2019-04-16T01:41:23.675Z,4.60
2019-04-16T01:42:24.250Z,3.90
2019-04-16T01:43:25.758Z,4.30
2019-04-16T01:44:23.528Z,4.00
2019-04-16T01:45:23.399Z,3.80
2019-04-16T01:46:23.331Z,3.90
2019-04-16T01:47:23.264Z,4.10
2019-04-16T01:48:23.200Z,4.50
2019-04-16T01:49:23.133Z,3.80
2019-04-16T01:50:23.067Z,3.80
2019-04-16T01:51:22.999Z,4.10
2019-04-16T01:52:22.931Z,3.80
2019-04-16T01:53:22.868Z,4.40
2019-04-16T01:54:23.445Z,4.80
2019-04-16T01:55:25.550Z,4.10
2019-04-16T01:56:28.029Z,3.40
2019-04-16T01:57:22.603Z,4.70
2019-04-16T01:58:22.536Z,4.00
2019-04-16T01:59:22.467Z,4.50
2019-04-16T02:00:22.404Z,4.40
2019-04-16T02:01:22.337Z,4.50
2019-04-16T02:02:22.287Z,4.50
2019-04-16T02:03:22.205Z,4.50
2019-04-16T02:04:22.138Z,4.20
2019-04-16T02:05:23.225Z,4.00
2019-04-16T02:06:25.649Z,4.30
2019-04-16T02:07:21.935Z,4.00
2019-04-16T02:08:21.877Z,4.00
2019-04-16T02:09:23.111Z,4.90
2019-04-16T02:10:21.742Z,4.60
2019-04-16T02:11:21.677Z,4.50
2019-04-16T02:12:21.609Z,5.10
2019-04-16T02:13:21.543Z,3.90
2019-04-16T02:14:22.341Z,4.20
2019-04-16T02:15:21.840Z,4.40
2019-04-16T02:16:22.322Z,4.00
2019-04-16T02:17:21.276Z,4.80
2019-04-16T02:18:21.212Z,4.20
2019-04-16T02:19:21.154Z,3.80
2019-04-16T02:20:21.076Z,4.00
2019-04-16T02:21:21.005Z,4.40
2019-04-16T02:22:20.944Z,4.50
2019-04-16T02:23:20.876Z,4.80
2019-04-16T02:24:20.809Z,4.00
2019-04-16T02:25:20.748Z,4.40
2019-04-16T02:26:23.520Z,3.90
2019-04-16T02:27:20.615Z,4.50
2019-04-16T02:28:21.723Z,4.00
2019-04-16T02:29:20.477Z,5.40
2019-04-16T02:30:20.413Z,3.90
2019-04-16T02:31:20.356Z,4.10
2019-04-16T02:32:20.287Z,4.50
2019-04-16T02:33:20.218Z,4.90
2019-04-16T02:34:20.153Z,4.50
2019-04-16T02:35:20.077Z,4.20
2019-04-16T02:36:20.011Z,4.50
2019-04-16T02:37:19.947Z,4.60
2019-04-16T02:38:19.891Z,4.30
2019-04-16T02:39:25.636Z,4.40
2019-04-16T02:40:19.755Z,4.40
2019-04-16T02:41:23.395Z,4.50
2019-04-16T02:42:19.614Z,4.50
2019-04-16T02:43:19.548Z,4.70
2019-04-16T02:44:19.480Z,4.10
2019-04-16T02:45:23.372Z,5.20
2019-04-16T02:46:19.353Z,4.60
2019-04-16T02:47:19.278Z,4.50
2019-04-16T02:48:19.217Z,4.30
2019-04-16T02:49:23.000Z,4.50
2019-04-16T02:50:19.085Z,4.80
2019-04-16T02:51:19.019Z,3.70
2019-04-16T02:52:18.952Z,4.50
2019-04-16T02:53:24.328Z,4.60
2019-04-16T02:54:18.816Z,4.50
2019-04-16T02:55:18.748Z,3.70
2019-04-16T02:56:19.262Z,4.60
2019-04-16T02:57:18.619Z,4.50
2019-04-16T02:58:18.552Z,5.40
2019-04-16T02:59:18.484Z,5.00
2019-04-16T03:00:18.597Z,4.60
2019-04-16T03:01:20.899Z,4.40
2019-04-16T03:02:22.811Z,5.20
2019-04-16T03:03:18.212Z,4.90
2019-04-16T03:04:18.140Z,4.70
2019-04-16T03:05:18.079Z,5.50
2019-04-16T03:06:18.019Z,5.30
2019-04-16T03:07:17.943Z,3.80
2019-04-16T03:08:17.876Z,4.10
2019-04-16T03:09:17.811Z,4.90
2019-04-16T03:10:17.754Z,5.60
2019-04-16T03:11:18.107Z,4.40
2019-04-16T03:12:20.761Z,4.70
2019-04-16T03:13:17.564Z,4.80
2019-04-16T03:14:17.475Z,4.80
2019-04-16T03:15:17.411Z,4.40
2019-04-16T03:16:17.345Z,4.50
2019-04-16T03:17:17.274Z,4.00
2019-04-16T03:18:17.214Z,3.90
2019-04-16T03:19:20.104Z,5.00
2019-04-16T03:20:17.076Z,4.80
2019-04-16T03:21:17.010Z,4.10
2019-04-16T03:22:16.949Z,5.00
2019-04-16T03:23:16.878Z,4.80
2019-04-16T03:24:16.814Z,4.80
2019-04-16T03:25:16.741Z,4.80
2019-04-16T03:26:18.057Z,4.70
2019-04-16T03:27:21.755Z,3.70
2019-04-16T03:28:16.550Z,5.40
2019-04-16T03:29:16.469Z,4.30
2019-04-16T03:30:16.409Z,4.60
2019-04-16T03:31:22.143Z,4.70
2019-04-16T03:32:16.672Z,4.50
2019-04-16T03:33:16.606Z,4.60
2019-04-16T03:34:19.064Z,4.20
2019-04-16T03:35:16.075Z,4.60
2019-04-16T03:36:16.000Z,4.80
2019-04-16T03:37:15.937Z,5.10
2019-04-16T03:38:15.972Z,4.10
2019-04-16T03:39:15.805Z,4.40
2019-04-16T03:40:18.287Z,5.10
2019-04-16T03:41:15.667Z,4.60
2019-04-16T03:42:15.610Z,4.90
2019-04-16T03:43:15.537Z,4.80
2019-04-16T03:44:15.471Z,4.50
2019-04-16T03:45:15.400Z,4.40
2019-04-16T03:46:15.330Z,3.70
2019-04-16T03:47:15.709Z,5.50
2019-04-16T03:48:15.201Z,4.40
2019-04-16T03:49:15.130Z,5.50
2019-04-16T03:50:15.064Z,5.10
2019-04-16T03:51:15.015Z,4.50
2019-04-16T03:52:14.935Z,5.20
2019-04-16T03:53:17.534Z,4.20
2019-04-16T03:54:14.794Z,5.30
2019-04-16T03:55:14.730Z,4.50
2019-04-16T03:56:14.673Z,5.00
2019-04-16T03:57:14.596Z,4.50
2019-04-16T03:58:14.524Z,4.50
2019-04-16T03:59:14.460Z,4.60
2019-04-16T04:00:14.398Z,4.50
2019-04-16T04:01:15.405Z,6.20
2019-04-16T04:02:15.486Z,4.80
2019-04-16T04:03:14.193Z,4.30
2019-04-16T04:04:14.131Z,4.50
2019-04-16T04:05:14.055Z,4.00
2019-04-16T04:06:13.990Z,5.20
2019-04-16T04:07:13.923Z,4.60
2019-04-16T04:08:17.619Z,6.00
2019-04-16T04:09:13.802Z,5.00
2019-04-16T04:10:13.736Z,4.90
2019-04-16T04:11:13.671Z,4.40
2019-04-16T04:12:14.302Z,4.70
2019-04-16T04:13:17.271Z,4.70
2019-04-16T04:14:13.456Z,5.20
2019-04-16T04:15:13.388Z,4.60
2019-04-16T04:16:13.316Z,5.00
2019-04-16T04:17:13.253Z,5.60
2019-04-16T04:18:13.252Z,5.70
2019-04-16T04:19:15.157Z,4.30
2019-04-16T04:20:14.599Z,3.90
2019-04-16T04:21:12.993Z,5.80
2019-04-16T04:22:12.918Z,5.40
2019-04-16T04:23:12.849Z,4.60
2019-04-16T04:24:12.789Z,4.00
2019-04-16T04:25:12.719Z,5.20
2019-04-16T04:26:12.678Z,4.50
2019-04-16T04:27:15.735Z,5.00
2019-04-16T04:28:12.840Z,4.40
2019-04-16T04:29:12.451Z,5.10
2019-04-16T04:30:12.383Z,4.90
2019-04-16T04:31:12.316Z,4.70
2019-04-16T04:32:12.249Z,5.20
2019-04-16T04:33:12.184Z,4.90
2019-04-16T04:34:15.358Z,4.80
2019-04-16T04:35:12.050Z,5.20
2019-04-16T04:36:12.210Z,6.00
2019-04-16T04:37:11.916Z,5.50
2019-04-16T04:38:11.852Z,5.20
2019-04-16T04:40:12.944Z,5.00
2019-04-16T04:41:11.759Z,4.90
2019-04-16T04:42:11.581Z,5.20
2019-04-16T04:43:09.932Z,5.10
2019-04-16T04:43:11.512Z,4.30
2019-04-16T04:44:11.447Z,4.90
2019-04-16T04:45:11.391Z,5.30
2019-04-16T04:46:14.545Z,5.10
2019-04-16T04:47:11.258Z,5.70
2019-04-16T04:48:12.126Z,4.60
2019-04-16T04:49:11.224Z,5.90
2019-04-16T04:50:11.045Z,4.70
2019-04-16T04:51:10.985Z,5.10
2019-04-16T04:52:13.580Z,6.20
2019-04-16T04:53:10.848Z,5.20
2019-04-16T04:54:10.779Z,4.10
2019-04-16T04:55:10.707Z,5.20
2019-04-16T04:56:10.646Z,5.50
2019-04-16T04:57:10.581Z,5.00
2019-04-16T04:58:10.511Z,4.80
2019-04-16T04:59:10.590Z,5.20
2019-04-16T05:00:10.379Z,5.00
2019-04-16T05:01:13.333Z,5.00
2019-04-16T05:02:10.846Z,5.20
2019-04-16T05:03:12.480Z,5.10
2019-04-16T05:04:10.104Z,5.30
2019-04-16T05:05:10.041Z,4.50
2019-04-16T05:06:09.977Z,5.00
2019-04-16T05:07:10.031Z,5.20
2019-04-16T05:08:09.837Z,4.40
2019-04-16T05:09:09.774Z,4.80
2019-04-16T05:10:09.699Z,5.00
2019-04-16T05:11:09.636Z,4.90
2019-04-16T05:12:09.570Z,4.50
2019-04-16T05:13:09.507Z,5.00
2019-04-16T05:14:09.441Z,4.60
2019-04-16T05:15:09.370Z,5.40
2019-04-16T05:16:09.319Z,4.60
2019-04-16T05:17:09.399Z,6.00
2019-04-16T05:18:10.813Z,4.80
2019-04-16T05:19:13.855Z,5.30
2019-04-16T05:20:09.039Z,5.50
2019-04-16T05:21:08.967Z,4.90
2019-04-16T05:22:08.905Z,5.10
2019-04-16T05:23:08.835Z,5.10
2019-04-16T05:24:08.768Z,5.70
2019-04-16T05:25:08.705Z,5.00
2019-04-16T05:26:09.976Z,5.60
2019-04-16T05:27:09.374Z,5.30
2019-04-16T05:28:11.599Z,5.10
2019-04-16T05:29:08.438Z,4.50
2019-04-16T05:30:08.389Z,4.80
2019-04-16T05:31:08.303Z,5.30
2019-04-16T05:32:08.236Z,4.60
2019-04-16T05:33:08.175Z,4.80
2019-04-16T05:34:08.102Z,5.00
2019-04-16T05:35:10.283Z,4.20
2019-04-16T05:36:11.033Z,4.80
2019-04-16T05:37:07.906Z,4.70
2019-04-16T05:38:07.839Z,4.50
2019-04-16T05:39:07.772Z,4.70
2019-04-16T05:40:07.709Z,5.50
2019-04-16T05:41:13.582Z,4.70
2019-04-16T05:42:07.573Z,5.10
2019-04-16T05:43:07.505Z,5.30
2019-04-16T05:44:07.439Z,5.00
2019-04-16T05:45:07.378Z,5.20
2019-04-16T05:46:08.828Z,5.40
2019-04-16T05:47:07.239Z,5.30
2019-04-16T05:48:07.173Z,5.70
2019-04-16T05:49:07.104Z,4.60
2019-04-16T05:50:07.042Z,4.50
2019-04-16T05:51:06.978Z,4.40
2019-04-16T05:52:06.908Z,4.80
2019-04-16T05:53:08.261Z,5.60
2019-04-16T05:54:08.467Z,4.90
2019-04-16T05:55:06.709Z,4.50
2019-04-16T05:56:06.641Z,5.00
2019-04-16T05:57:06.576Z,5.90
2019-04-16T05:58:06.508Z,4.70
2019-04-16T05:59:06.442Z,4.50
2019-04-16T06:00:10.155Z,4.70
2019-04-16T06:01:06.350Z,5.10
2019-04-16T06:02:06.247Z,4.80
2019-04-16T06:03:06.177Z,4.00
2019-04-16T06:04:06.109Z,4.60
2019-04-16T06:05:06.044Z,5.20
2019-04-16T06:06:05.978Z,4.40
2019-04-16T06:07:07.747Z,4.20
2019-04-16T06:08:06.339Z,5.00
2019-04-16T06:09:05.781Z,4.70
2019-04-16T06:10:06.987Z,5.80
2019-04-16T06:11:05.647Z,5.00
2019-04-16T06:12:05.890Z,4.40
2019-04-16T06:13:05.515Z,4.10
2019-04-16T06:14:05.452Z,5.50
2019-04-16T06:15:05.382Z,4.70
2019-04-16T06:16:05.324Z,4.70
2019-04-16T06:17:05.249Z,5.70
2019-04-16T06:18:05.524Z,4.60
2019-04-16T06:19:05.118Z,5.70
2019-04-16T06:20:05.049Z,4.50
2019-04-16T06:21:04.983Z,4.90
2019-04-16T06:22:04.920Z,4.70
2019-04-16T06:23:04.862Z,4.60
2019-04-16T06:24:04.787Z,5.50
2019-04-16T06:25:09.335Z,4.80
2019-04-16T06:26:04.655Z,4.70
2019-04-16T06:27:04.654Z,4.70
2019-04-16T06:28:04.522Z,5.00
2019-04-16T06:29:04.454Z,4.60
2019-04-16T06:30:04.393Z,5.00
2019-04-16T06:31:05.269Z,5.00
2019-04-16T06:32:04.256Z,5.30
2019-04-16T06:33:04.193Z,4.60
2019-04-16T06:34:04.202Z,4.80
2019-04-16T06:35:04.060Z,5.40
2019-04-16T06:36:03.993Z,4.60
2019-04-16T06:37:03.932Z,4.70
2019-04-16T06:38:03.864Z,4.70
2019-04-16T06:39:03.798Z,4.70
2019-04-16T06:40:03.730Z,4.50
2019-04-16T06:41:04.202Z,4.90
2019-04-16T06:42:03.598Z,4.60
2019-04-16T06:43:03.534Z,4.30
2019-04-16T06:44:04.183Z,5.40
2019-04-16T06:45:04.917Z,4.50
2019-04-16T06:46:05.437Z,4.70
2019-04-16T06:47:03.272Z,4.00
2019-04-16T06:48:03.205Z,5.00
2019-04-16T06:49:03.144Z,4.50
2019-04-16T06:50:03.111Z,4.90
2019-04-16T06:51:03.009Z,5.00
2019-04-16T06:52:03.535Z,4.10
2019-04-16T06:53:02.877Z,4.20
2019-04-16T06:54:02.813Z,5.70
2019-04-16T06:55:03.750Z,4.90
2019-04-16T06:56:05.519Z,5.40
2019-04-16T06:57:02.661Z,4.90
2019-04-16T06:58:02.552Z,5.30
2019-04-16T06:59:02.486Z,4.40
2019-04-16T07:00:03.105Z,5.10
2019-04-16T07:01:05.913Z,4.20
2019-04-16T07:02:02.293Z,3.80
2019-04-16T07:03:03.025Z,5.00
2019-04-16T07:04:02.158Z,5.10
2019-04-16T07:05:02.158Z,4.20
2019-04-16T07:06:03.984Z,5.40
2019-04-16T07:07:01.970Z,4.80
2019-04-16T07:08:01.897Z,4.60
2019-04-16T07:09:01.832Z,5.00
2019-04-16T07:10:01.774Z,5.50
2019-04-16T07:11:01.701Z,4.70
2019-04-16T07:12:01.637Z,5.00
2019-04-16T07:13:01.572Z,4.30
2019-04-16T07:14:01.506Z,4.50
2019-04-16T07:15:01.444Z,4.80
2019-04-16T07:16:01.370Z,4.00
2019-04-16T07:17:01.311Z,4.50
2019-04-16T07:18:02.513Z,4.40
2019-04-16T07:19:01.182Z,5.10
2019-04-16T07:20:04.469Z,3.90
2019-04-16T07:21:01.050Z,5.30
2019-04-16T07:22:00.987Z,5.00
2019-04-16T07:23:00.921Z,4.50
2019-04-16T07:24:00.899Z,4.60
2019-04-16T07:25:04.152Z,4.00
2019-04-16T07:26:03.380Z,4.40
2019-04-16T07:27:00.882Z,4.50
2019-04-16T07:28:00.595Z,4.40
2019-04-16T07:29:00.535Z,3.60
2019-04-16T07:30:04.879Z,3.50
2019-04-16T07:31:00.499Z,4.00
2019-04-16T07:32:00.664Z,4.80
2019-04-16T07:33:01.123Z,4.50
2019-04-16T07:34:00.211Z,4.20
2019-04-16T07:35:00.140Z,3.70
2019-04-16T07:36:00.076Z,5.30
2019-04-16T07:37:00.703Z,4.20
2019-04-16T07:38:04.939Z,4.10
2019-04-16T07:38:59.884Z,3.90
2019-04-16T07:39:59.821Z,3.40
2019-04-16T07:40:59.756Z,4.60
2019-04-16T07:42:09.380Z,4.60
2019-04-16T07:42:59.634Z,4.00
2019-04-16T07:44:04.477Z,4.30
2019-04-16T07:44:59.509Z,4.10
2019-04-16T07:45:59.436Z,4.40
2019-04-16T07:46:59.390Z,4.70
2019-04-16T07:47:59.311Z,4.20
2019-04-16T07:48:59.239Z,4.40
2019-04-16T07:50:01.299Z,4.40
2019-04-16T07:51:01.859Z,4.30
2019-04-16T07:51:59.047Z,4.40
2019-04-16T07:52:58.985Z,3.60
2019-04-16T07:54:02.141Z,4.10
2019-04-16T07:54:58.854Z,4.80
2019-04-16T07:55:58.785Z,3.80
2019-04-16T07:56:58.769Z,4.20
2019-04-16T07:57:58.670Z,4.20
2019-04-16T07:59:01.292Z,4.10
2019-04-16T07:59:58.536Z,4.20
2019-04-16T08:00:58.467Z,3.90
2019-04-16T08:01:58.407Z,4.50
2019-04-16T08:02:58.340Z,4.50
2019-04-16T08:04:01.024Z,4.40
2019-04-16T08:04:58.212Z,4.80
2019-04-16T08:05:58.155Z,5.20
2019-04-16T08:06:58.085Z,4.20
2019-04-16T08:07:58.027Z,4.40
2019-04-16T08:08:58.509Z,4.40
2019-04-16T08:10:01.341Z,4.50
2019-04-16T08:10:57.829Z,4.60
2019-04-16T08:11:57.769Z,4.90
2019-04-16T08:13:00.538Z,4.10
2019-04-16T08:13:57.805Z,4.10
2019-04-16T08:15:12.114Z,4.40
2019-04-16T08:15:57.581Z,3.90
2019-04-16T08:16:57.443Z,4.40
2019-04-16T08:17:57.694Z,5.00
2019-04-16T08:18:57.310Z,4.80
2019-04-16T08:19:57.250Z,4.30
2019-04-16T08:21:02.365Z,4.80
2019-04-16T08:21:57.124Z,4.90
2019-04-16T08:22:57.060Z,3.50
2019-04-16T08:23:56.998Z,4.00
2019-04-16T08:24:59.618Z,3.60
2019-04-16T08:26:03.204Z,5.10
2019-04-16T08:26:56.804Z,4.50
2019-04-16T08:27:56.752Z,4.10
2019-04-16T08:28:56.676Z,3.90
2019-04-16T08:30:02.205Z,4.10
2019-04-16T08:30:56.551Z,4.30
2019-04-16T08:31:56.493Z,5.10
2019-04-16T08:32:56.428Z,4.10
2019-04-16T08:33:56.357Z,4.20
2019-04-16T08:34:56.531Z,3.90
2019-04-16T08:35:56.234Z,4.20
2019-04-16T08:36:56.176Z,4.10
2019-04-16T08:37:57.943Z,4.60
2019-04-16T08:38:56.045Z,4.40
2019-04-16T08:39:55.981Z,4.20
2019-04-16T08:40:56.057Z,3.80
2019-04-16T08:41:55.852Z,4.00
2019-04-16T08:42:57.541Z,4.50
2019-04-16T08:43:55.730Z,3.90
2019-04-16T08:44:55.664Z,4.20
2019-04-16T08:45:55.601Z,4.10
2019-04-16T08:46:58.371Z,3.60
2019-04-16T08:47:55.479Z,4.20
2019-04-16T08:48:55.413Z,3.90
2019-04-16T08:49:55.348Z,4.30
2019-04-16T08:50:57.936Z,5.00
2019-04-16T08:51:55.228Z,3.80
2019-04-16T08:52:55.171Z,4.20
2019-04-16T08:53:55.093Z,4.50
2019-04-16T08:54:55.105Z,3.70
2019-04-16T08:55:54.994Z,3.40
2019-04-16T08:56:54.906Z,4.50
2019-04-16T08:57:54.848Z,4.00
2019-04-16T08:59:00.016Z,4.50
2019-04-16T08:59:54.721Z,4.20
2019-04-16T09:00:54.655Z,4.30
2019-04-16T09:01:55.211Z,3.40
2019-04-16T09:02:57.572Z,4.50
2019-04-16T09:03:54.465Z,4.80
2019-04-16T09:04:54.408Z,4.30
2019-04-16T09:05:54.343Z,4.30
2019-04-16T09:06:54.279Z,4.80
2019-04-16T09:07:54.226Z,5.00
2019-04-16T09:08:54.153Z,4.60
2019-04-16T09:09:57.255Z,4.30
2019-04-16T09:10:54.029Z,3.80
2019-04-16T09:11:53.976Z,3.80
2019-04-16T09:13:03.263Z,3.30
2019-04-16T09:13:53.847Z,4.40
2019-04-16T09:14:56.071Z,4.30
2019-04-16T09:15:53.709Z,4.00
2019-04-16T09:16:53.651Z,4.50
2019-04-16T09:17:53.587Z,4.60
2019-04-16T09:18:53.524Z,4.40
2019-04-16T09:19:53.465Z,3.90
2019-04-16T09:20:53.398Z,4.00
2019-04-16T09:21:53.340Z,4.10
2019-04-16T09:22:54.509Z,4.30
2019-04-16T09:23:56.685Z,3.70
2019-04-16T09:24:53.149Z,3.30
2019-04-16T09:25:53.089Z,4.90
2019-04-16T09:26:55.681Z,4.00
2019-04-16T09:27:52.965Z,4.30
2019-04-16T09:28:52.901Z,4.30
2019-04-16T09:29:52.839Z,4.00
2019-04-16T09:30:52.782Z,4.80
2019-04-16T09:31:55.442Z,4.10
2019-04-16T09:32:52.655Z,4.10
2019-04-16T09:33:52.593Z,3.60
2019-04-16T09:34:52.533Z,4.60
2019-04-16T09:35:52.464Z,5.30
2019-04-16T09:36:52.404Z,3.40
2019-04-16T09:37:52.349Z,4.20
2019-04-16T09:38:52.279Z,4.60
2019-04-16T09:39:52.218Z,5.30
2019-04-16T09:40:52.159Z,3.80
2019-04-16T09:41:52.092Z,3.50
2019-04-16T09:42:52.045Z,4.00
2019-04-16T09:43:53.627Z,4.00
2019-04-16T09:44:51.906Z,4.40
2019-04-16T09:45:51.844Z,4.30
2019-04-16T09:46:52.386Z,4.60
2019-04-16T09:47:51.720Z,4.00
2019-04-16T09:48:51.664Z,4.50
2019-04-16T09:49:51.598Z,4.50
2019-04-16T09:50:51.534Z,3.60
2019-04-16T09:51:51.485Z,4.00
2019-04-16T09:52:52.509Z,4.40
2019-04-16T09:53:51.349Z,4.60
2019-04-16T09:54:51.290Z,4.80
2019-04-16T09:55:51.316Z,4.20
2019-04-16T09:56:51.163Z,4.10
2019-04-16T09:57:51.105Z,4.10
2019-04-16T09:58:51.045Z,4.30
2019-04-16T09:59:50.980Z,5.10
2019-04-16T10:00:50.917Z,4.00
2019-04-16T10:01:50.858Z,3.20
2019-04-16T10:02:50.795Z,3.70
2019-04-16T10:03:53.575Z,3.80
2019-04-16T10:04:50.673Z,3.70
2019-04-16T10:05:50.611Z,4.30
2019-04-16T10:06:50.587Z,3.90
2019-04-16T10:07:50.487Z,4.20
2019-04-16T10:08:50.437Z,4.10
2019-04-16T10:09:51.293Z,3.80
2019-04-16T10:10:50.320Z,4.50
2019-04-16T10:11:50.250Z,4.10
2019-04-16T10:12:50.223Z,4.80
2019-04-16T10:13:50.120Z,4.10
2019-04-16T10:14:50.074Z,4.00
2019-04-16T10:15:50.037Z,3.50
2019-04-16T10:16:49.957Z,3.60
2019-04-16T10:17:49.880Z,4.10
2019-04-16T10:18:49.820Z,3.40
2019-04-16T10:19:49.755Z,3.50
2019-04-16T10:20:49.698Z,3.90
2019-04-16T10:21:53.155Z,3.20
2019-04-16T10:22:49.573Z,3.70
2019-04-16T10:23:49.518Z,2.90
2019-04-16T10:24:49.470Z,3.90
2019-04-16T10:25:49.390Z,3.70
2019-04-16T10:26:49.347Z,3.30
2019-04-16T10:27:49.279Z,3.10
2019-04-16T10:28:49.218Z,3.50
2019-04-16T10:29:49.155Z,2.90
2019-04-16T10:30:49.084Z,2.90
2019-04-16T10:31:49.021Z,3.60
2019-04-16T10:32:48.964Z,4.70
2019-04-16T10:33:48.908Z,2.90
2019-04-16T10:34:48.846Z,4.10
2019-04-16T10:35:48.782Z,3.90
2019-04-16T10:36:48.769Z,3.50
2019-04-16T10:37:48.670Z,4.00
2019-04-16T10:38:48.603Z,3.90
2019-04-16T10:39:48.547Z,3.10
2019-04-16T10:40:48.483Z,2.30
2019-04-16T10:41:48.425Z,2.80
2019-04-16T10:42:48.358Z,2.70
2019-04-16T10:43:48.297Z,4.30
2019-04-16T10:44:48.258Z,3.30
2019-04-16T10:45:48.198Z,3.10
2019-04-16T10:46:48.120Z,2.50
2019-04-16T10:47:48.086Z,3.40
2019-04-16T10:48:47.996Z,3.60
2019-04-16T10:49:47.936Z,4.10
2019-04-16T10:50:47.873Z,3.30
2019-04-16T10:51:47.814Z,3.60
2019-04-16T10:52:47.753Z,4.30
2019-04-16T10:53:47.696Z,3.10
2019-04-16T10:54:47.632Z,5.00
2019-04-16T10:55:47.592Z,3.80
2019-04-16T10:56:47.513Z,3.10
2019-04-16T10:57:47.460Z,3.00
2019-04-16T10:58:47.395Z,3.40
2019-04-16T10:59:47.357Z,3.20
2019-04-16T11:00:47.305Z,3.30
2019-04-16T11:01:47.211Z,2.20
2019-04-16T11:02:47.149Z,3.30
2019-04-16T11:03:47.096Z,3.90
2019-04-16T11:04:47.028Z,3.00
2019-04-16T11:05:46.986Z,3.50
2019-04-16T11:06:46.913Z,3.70
2019-04-16T11:07:46.848Z,3.20
2019-04-16T11:08:46.804Z,3.20
2019-04-16T11:09:46.765Z,2.90
2019-04-16T11:10:46.671Z,3.00
2019-04-16T11:11:46.611Z,4.10
2019-04-16T11:12:46.545Z,4.20
2019-04-16T11:13:59.332Z,3.10
2019-04-16T11:14:46.438Z,3.20
2019-04-16T11:15:46.362Z,3.00
2019-04-16T11:16:46.305Z,2.40
2019-04-16T11:17:46.263Z,3.20
2019-04-16T11:18:46.181Z,3.00
2019-04-16T11:19:46.161Z,2.80
2019-04-16T11:20:46.072Z,3.30
2019-04-16T11:21:46.005Z,2.70
2019-04-16T11:22:45.989Z,3.30
2019-04-16T11:23:45.898Z,2.60
2019-04-16T11:24:45.824Z,2.20
2019-04-16T11:25:45.760Z,3.00
2019-04-16T11:26:45.705Z,2.40
2019-04-16T11:27:45.649Z,3.20
2019-04-16T11:28:45.674Z,1.80
2019-04-16T11:29:45.526Z,2.60
2019-04-16T11:30:48.616Z,2.10
2019-04-16T11:31:45.421Z,2.80
2019-04-16T11:32:45.342Z,2.80
2019-04-16T11:33:45.281Z,2.30
2019-04-16T11:34:45.220Z,4.20
2019-04-16T11:35:45.163Z,3.00
2019-04-16T11:36:45.178Z,2.50
2019-04-16T11:37:45.046Z,2.50
2019-04-16T11:38:44.977Z,2.80
2019-04-16T11:39:44.960Z,2.60
2019-04-16T11:40:44.944Z,3.00
2019-04-16T11:41:44.820Z,3.30
2019-04-16T11:42:44.765Z,3.20
2019-04-16T11:43:44.685Z,3.30
2019-04-16T11:44:44.618Z,2.40
2019-04-16T11:45:44.556Z,3.30
2019-04-16T11:46:44.503Z,3.10
2019-04-16T11:47:47.968Z,2.10
2019-04-16T11:48:44.416Z,2.30
2019-04-16T11:49:44.327Z,3.00
2019-04-16T11:50:44.249Z,2.90
2019-04-16T11:51:44.262Z,2.70
2019-04-16T11:52:44.133Z,2.70
2019-04-16T11:53:44.075Z,2.80
2019-04-16T11:54:46.776Z,2.10
2019-04-16T11:55:43.993Z,3.10
2019-04-16T11:56:43.883Z,3.00
2019-04-16T11:57:43.857Z,2.90
2019-04-16T11:58:43.790Z,3.00
2019-04-16T11:59:43.767Z,2.40
2019-04-16T12:00:43.649Z,3.00
2019-04-16T12:01:43.592Z,2.90
2019-04-16T12:02:43.533Z,3.00
2019-04-16T12:03:43.465Z,3.40
2019-04-16T12:04:43.432Z,2.60
2019-04-16T12:05:43.339Z,3.70
2019-04-16T12:06:43.302Z,2.40
2019-04-16T12:07:46.827Z,2.90
2019-04-16T12:08:43.181Z,2.80
2019-04-16T12:09:43.129Z,3.30
2019-04-16T12:10:43.050Z,2.80
2019-04-16T12:11:42.994Z,2.60
2019-04-16T12:12:42.935Z,2.70
2019-04-16T12:13:42.880Z,3.60
2019-04-16T12:14:43.676Z,2.40
2019-04-16T12:15:42.772Z,2.30
2019-04-16T12:16:42.696Z,2.60
2019-04-16T12:17:42.620Z,2.10
2019-04-16T12:18:42.571Z,2.00
2019-04-16T12:19:44.831Z,2.00
2019-04-16T12:20:42.434Z,1.70
2019-04-16T12:21:42.374Z,2.40
2019-04-16T12:22:42.322Z,2.30
2019-04-16T12:23:42.290Z,2.40
2019-04-16T12:24:42.211Z,2.80
2019-04-16T12:25:42.192Z,2.20
2019-04-16T12:26:42.069Z,2.40
2019-04-16T12:27:42.013Z,2.90
2019-04-16T12:28:43.246Z,2.50
2019-04-16T12:29:41.908Z,3.10
2019-04-16T12:30:41.850Z,2.90
2019-04-16T12:31:41.770Z,2.20
2019-04-16T12:32:41.724Z,3.50
2019-04-16T12:33:41.648Z,2.40
2019-04-16T12:34:41.585Z,2.00
2019-04-16T12:35:45.162Z,2.60
2019-04-16T12:36:41.588Z,2.60
2019-04-16T12:37:41.502Z,2.60
2019-04-16T12:38:41.349Z,2.40
2019-04-16T12:39:41.326Z,3.00
2019-04-16T12:40:42.315Z,2.30
2019-04-16T12:41:41.165Z,2.80
2019-04-16T12:42:42.350Z,2.90
2019-04-16T12:43:41.043Z,2.70
2019-04-16T12:44:45.784Z,2.90
2019-04-16T12:45:40.945Z,1.70
2019-04-16T12:46:40.861Z,2.00
2019-04-16T12:47:40.802Z,2.20
2019-04-16T12:48:40.784Z,1.70
2019-04-16T12:49:40.707Z,2.00
2019-04-16T12:50:40.642Z,1.90
2019-04-16T12:51:40.986Z,2.10
2019-04-16T12:52:40.508Z,2.00
2019-04-16T12:53:40.449Z,2.10
2019-04-16T12:54:40.416Z,2.60
2019-04-16T12:55:40.343Z,2.20
2019-04-16T12:56:41.272Z,1.50
2019-04-16T12:57:40.201Z,1.30
2019-04-16T12:58:40.141Z,2.40
2019-04-16T12:59:40.085Z,1.70
2019-04-16T13:00:40.021Z,2.10
2019-04-16T13:01:39.960Z,1.90
2019-04-16T13:02:41.919Z,2.30
2019-04-16T13:03:39.839Z,2.70
2019-04-16T13:04:39.779Z,2.00
2019-04-16T13:05:39.717Z,2.70
2019-04-16T13:06:39.657Z,2.30
2019-04-16T13:07:39.599Z,3.10
2019-04-16T13:08:39.538Z,2.00
2019-04-16T13:09:39.476Z,2.00
2019-04-16T13:10:39.414Z,2.00
2019-04-16T13:11:39.359Z,2.70
2019-04-16T13:12:39.295Z,2.50
2019-04-16T13:13:39.235Z,2.30
2019-04-16T13:14:39.188Z,2.70
2019-04-16T13:15:39.111Z,2.10
2019-04-16T13:16:39.054Z,2.00
2019-04-16T13:17:38.998Z,2.80